createdAt,value
2019-01-16T00:00:31.349Z,99.90
2019-01-16T00:03:21.134Z,99.90
2019-01-16T00:06:12.758Z,99.90
2019-01-16T00:09:05.267Z,99.90
2019-01-16T00:11:58.299Z,99.90
2019-01-16T00:15:05.066Z,99.90
2019-01-16T00:18:16.988Z,99.90
2019-01-16T00:21:16.626Z,99.90
2019-01-16T00:24:09.465Z,99.90
2019-01-16T00:27:07.036Z,99.90
2019-01-16T00:30:07.420Z,99.90
2019-01-16T00:33:07.990Z,99.90
2019-01-16T00:35:57.555Z,99.90
2019-01-16T00:38:51.202Z,99.90
2019-01-16T00:41:48.692Z,99.90
2019-01-16T00:44:29.352Z,99.90
2019-01-16T00:47:12.519Z,99.90
2019-01-16T00:50:08.464Z,99.90
2019-01-16T00:53:13.224Z,99.90
2019-01-16T00:56:06.532Z,99.90
2019-01-16T00:59:00.226Z,99.90
2019-01-16T01:01:50.877Z,99.90
2019-01-16T01:04:51.201Z,99.90
2019-01-16T01:07:43.924Z,99.90
2019-01-16T01:10:34.240Z,99.90
2019-01-16T01:13:37.210Z,99.90
2019-01-16T01:16:27.113Z,99.90
2019-01-16T01:19:26.835Z,99.90
2019-01-16T01:22:28.192Z,99.90
2019-01-16T01:25:38.130Z,99.90
2019-01-16T01:28:28.662Z,99.90
2019-01-16T01:31:27.529Z,99.90
2019-01-16T01:34:17.516Z,99.90
2019-01-16T01:37:08.993Z,99.90
2019-01-16T01:40:00.563Z,99.90
2019-01-16T01:43:10.541Z,99.90
2019-01-16T01:46:01.766Z,99.90
2019-01-16T01:49:05.863Z,99.90
2019-01-16T01:52:03.402Z,99.90
2019-01-16T01:55:00.653Z,99.90
2019-01-16T01:57:50.585Z,99.90
2019-01-16T02:00:46.684Z,99.90
2019-01-16T02:03:47.419Z,99.90
2019-01-16T02:06:45.325Z,99.90
2019-01-16T02:09:45.106Z,99.90
2019-01-16T02:12:38.852Z,99.90
2019-01-16T02:15:33.970Z,99.90
2019-01-16T02:22:18.892Z,99.90
2019-01-16T02:25:22.303Z,99.90
2019-01-16T02:28:13.643Z,99.90
2019-01-16T02:31:04.189Z,99.90
2019-01-16T02:34:09.006Z,99.90
2019-01-16T02:37:07.071Z,99.90
2019-01-16T02:39:57.768Z,99.90
2019-01-16T02:42:49.032Z,99.90
2019-01-16T02:45:49.409Z,99.90
2019-01-16T02:48:55.634Z,99.90
2019-01-16T02:51:45.870Z,99.90
2019-01-16T02:54:32.405Z,99.90
2019-01-16T02:57:31.336Z,99.90
2019-01-16T03:00:36.851Z,99.90
2019-01-16T03:03:37.174Z,99.90
2019-01-16T03:06:23.381Z,99.90
2019-01-16T03:09:15.739Z,99.90
2019-01-16T03:12:05.178Z,99.90
2019-01-16T03:14:45.564Z,99.90
2019-01-16T03:17:40.068Z,99.90
2019-01-16T03:20:49.751Z,99.90
2019-01-16T03:23:50.499Z,99.90
2019-01-16T03:26:36.587Z,99.90
2019-01-16T03:29:25.978Z,99.90
2019-01-16T03:34:51.998Z,99.90
2019-01-16T03:37:43.563Z,99.90
2019-01-16T03:40:33.198Z,99.90
2019-01-16T03:43:18.630Z,99.90
2019-01-16T03:46:14.673Z,99.90
2019-01-16T03:49:12.907Z,99.90
2019-01-16T03:51:56.198Z,99.90
2019-01-16T03:54:47.869Z,99.90
2019-01-16T03:57:37.660Z,99.90
2019-01-16T04:00:28.695Z,99.90
2019-01-16T04:03:18.461Z,99.90
2019-01-16T04:06:28.021Z,99.90
2019-01-16T04:09:21.593Z,99.90
2019-01-16T04:12:15.798Z,99.90
2019-01-16T04:15:15.815Z,99.90
2019-01-16T04:18:15.804Z,99.90
2019-01-16T04:21:12.938Z,99.90
2019-01-16T04:23:53.266Z,99.90
2019-01-16T04:26:53.404Z,99.90
2019-01-16T04:29:42.740Z,99.90
2019-01-16T04:32:32.027Z,99.90
2019-01-16T04:35:30.616Z,99.90
2019-01-16T04:38:27.960Z,99.90
2019-01-16T04:41:25.180Z,99.90
2019-01-16T04:44:09.996Z,99.90
2019-01-16T04:46:59.873Z,99.90
2019-01-16T04:49:52.313Z,99.90
2019-01-16T04:52:49.552Z,99.90
2019-01-16T04:55:58.761Z,99.90
2019-01-16T04:58:58.120Z,99.90
2019-01-16T05:02:02.045Z,99.90
2019-01-16T05:04:50.246Z,99.90
2019-01-16T05:07:44.069Z,99.90
2019-01-16T05:10:31.977Z,99.90
2019-01-16T05:13:19.705Z,99.90
2019-01-16T05:16:13.602Z,99.90
2019-01-16T05:19:22.740Z,99.90
2019-01-16T05:22:05.249Z,99.90
2019-01-16T05:24:52.248Z,99.90
2019-01-16T05:27:42.002Z,99.90
2019-01-16T05:30:33.885Z,99.90
2019-01-16T05:33:21.785Z,99.90
2019-01-16T05:36:15.804Z,99.90
2019-01-16T05:39:10.162Z,99.90
2019-01-16T05:41:53.961Z,99.90
2019-01-16T05:44:43.612Z,99.90
2019-01-16T05:47:38.566Z,99.90
2019-01-16T05:50:22.956Z,99.90
2019-01-16T05:53:12.503Z,99.90
2019-01-16T05:56:06.721Z,99.90
2019-01-16T05:58:56.363Z,99.90
2019-01-16T06:01:43.535Z,99.90
2019-01-16T06:04:49.676Z,99.90
2019-01-16T06:07:40.992Z,99.90
2019-01-16T06:10:31.924Z,99.90
2019-01-16T06:13:24.772Z,99.90
2019-01-16T06:16:25.306Z,99.90
2019-01-16T06:19:25.525Z,99.90
2019-01-16T06:22:15.252Z,99.90
2019-01-16T06:25:04.727Z,99.90
2019-01-16T06:27:56.065Z,99.90
2019-01-16T06:30:56.164Z,99.90
2019-01-16T06:33:56.309Z,99.90
2019-01-16T06:36:56.955Z,99.90
2019-01-16T06:40:06.278Z,99.90
2019-01-16T06:43:06.493Z,99.90
2019-01-16T06:45:48.540Z,99.90
2019-01-16T06:48:39.887Z,99.90
2019-01-16T06:51:30.868Z,99.90
2019-01-16T06:58:00.408Z,99.90
2019-01-16T07:00:51.795Z,99.90
2019-01-16T07:03:54.891Z,99.90
2019-01-16T07:06:52.174Z,99.90
2019-01-16T07:09:41.996Z,99.90
2019-01-16T07:12:31.525Z,99.90
2019-01-16T07:15:32.036Z,99.90
2019-01-16T07:18:25.957Z,99.90
2019-01-16T07:21:08.506Z,99.90
2019-01-16T07:24:09.150Z,99.90
2019-01-16T07:27:12.319Z,99.90
2019-01-16T07:29:56.663Z,99.90
2019-01-16T07:32:46.816Z,99.90
2019-01-16T07:35:38.399Z,99.90
2019-01-16T07:38:32.606Z,99.90
2019-01-16T07:41:30.293Z,99.90
2019-01-16T07:44:19.804Z,99.90
2019-01-16T07:47:11.253Z,99.90
2019-01-16T07:50:00.339Z,99.90
2019-01-16T07:52:51.706Z,99.90
2019-01-16T07:55:41.319Z,99.90
2019-01-16T07:58:31.252Z,99.90
2019-01-16T08:01:28.589Z,99.90
2019-01-16T08:04:16.279Z,99.90
2019-01-16T08:07:19.831Z,99.90
2019-01-16T08:10:13.754Z,99.90
2019-01-16T08:13:05.130Z,99.90
2019-01-16T08:15:53.922Z,99.90
2019-01-16T08:18:54.254Z,99.90
2019-01-16T08:21:47.263Z,99.90
2019-01-16T08:24:31.612Z,99.90
2019-01-16T08:27:21.646Z,99.90
2019-01-16T08:30:11.525Z,99.90
2019-01-16T08:32:55.554Z,99.90
2019-01-16T08:35:45.337Z,99.90
2019-01-16T08:38:34.486Z,99.90
2019-01-16T08:41:31.400Z,99.90
2019-01-16T08:44:22.833Z,99.90
2019-01-16T08:47:29.093Z,99.90
2019-01-16T08:53:26.586Z,99.90
2019-01-16T08:56:19.914Z,99.90
2019-01-16T08:59:11.143Z,99.90
2019-01-16T09:02:00.769Z,99.90
2019-01-16T09:04:52.059Z,99.90
2019-01-16T09:08:00.960Z,99.90
2019-01-16T09:10:52.257Z,99.90
2019-01-16T09:13:39.245Z,99.90
2019-01-16T09:16:32.924Z,99.90
2019-01-16T09:19:26.786Z,99.90
2019-01-16T09:22:14.717Z,99.90
2019-01-16T09:25:06.105Z,99.90
2019-01-16T09:27:59.433Z,99.90
2019-01-16T09:30:49.179Z,99.90
2019-01-16T09:33:43.512Z,99.90
2019-01-16T09:36:32.364Z,99.90
2019-01-16T09:39:22.259Z,99.90
2019-01-16T09:42:25.460Z,99.90
2019-01-16T09:45:15.028Z,99.90
2019-01-16T09:48:11.493Z,99.90
2019-01-16T09:51:01.062Z,99.90
2019-01-16T09:53:55.721Z,99.90
2019-01-16T09:56:45.192Z,99.90
2019-01-16T09:59:39.469Z,99.90
2019-01-16T10:02:31.419Z,99.90
2019-01-16T10:05:21.283Z,99.90
2019-01-16T10:08:18.425Z,99.90
2019-01-16T10:11:08.169Z,99.90
2019-01-16T10:13:56.610Z,99.90
2019-01-16T10:17:06.075Z,99.90
2019-01-16T10:20:00.180Z,99.90
2019-01-16T10:22:41.705Z,99.90
2019-01-16T10:25:41.030Z,99.90
2019-01-16T10:28:35.179Z,99.90
2019-01-16T10:31:24.824Z,99.90
2019-01-16T10:34:27.954Z,99.90
2019-01-16T10:37:17.733Z,99.90
2019-01-16T10:40:10.593Z,99.90
2019-01-16T10:43:04.591Z,99.90
2019-01-16T10:46:01.599Z,99.90
2019-01-16T10:48:50.961Z,99.90
2019-01-16T10:51:40.909Z,99.90
2019-01-16T10:54:38.470Z,99.90
2019-01-16T10:57:35.982Z,99.90
2019-01-16T11:00:27.773Z,99.90
2019-01-16T11:03:37.273Z,99.90
2019-01-16T11:06:34.428Z,99.90
2019-01-16T11:09:28.959Z,99.90
2019-01-16T11:12:24.821Z,99.90
2019-01-16T11:15:27.950Z,99.90
2019-01-16T11:18:19.101Z,99.90
2019-01-16T11:21:11.093Z,99.90
2019-01-16T11:24:07.161Z,99.90
2019-01-16T11:26:57.722Z,99.90
2019-01-16T11:29:47.150Z,99.90
2019-01-16T11:32:48.653Z,99.90
2019-01-16T11:35:36.145Z,99.90
2019-01-16T11:38:25.815Z,99.90
2019-01-16T11:41:07.611Z,99.90
2019-01-16T11:43:57.321Z,99.90
2019-01-16T11:46:47.434Z,99.90
2019-01-16T11:49:37.344Z,99.90
2019-01-16T11:52:33.383Z,99.90
2019-01-16T11:55:23.754Z,99.90
2019-01-16T11:58:13.430Z,99.90
2019-01-16T12:00:53.224Z,99.90
2019-01-16T12:03:40.392Z,99.90
2019-01-16T12:06:29.709Z,99.90
2019-01-16T12:09:19.783Z,99.90
2019-01-16T12:12:17.160Z,99.90
2019-01-16T12:14:58.567Z,99.90
2019-01-16T12:17:58.945Z,99.90
2019-01-16T12:20:56.101Z,99.90
2019-01-16T12:23:45.896Z,99.90
2019-01-16T12:26:40.171Z,99.90
2019-01-16T12:29:26.871Z,99.90
2019-01-16T12:32:21.538Z,99.90
2019-01-16T12:35:19.137Z,99.90
2019-01-16T12:38:10.452Z,99.90
2019-01-16T12:44:42.306Z,99.90
2019-01-16T12:47:36.047Z,99.90
2019-01-16T12:50:38.651Z,99.90
2019-01-16T12:53:31.671Z,99.90
2019-01-16T12:56:32.778Z,99.90
2019-01-16T12:59:23.988Z,99.90
2019-01-16T13:02:10.859Z,99.90
2019-01-16T13:05:02.847Z,99.90
2019-01-16T13:08:00.894Z,99.90
2019-01-16T13:11:05.661Z,99.90
2019-01-16T13:13:52.497Z,99.90
2019-01-16T13:16:58.333Z,99.90
2019-01-16T13:19:42.700Z,99.90
2019-01-16T13:22:33.102Z,99.90
2019-01-16T13:25:27.850Z,99.90
2019-01-16T13:28:23.553Z,99.90
2019-01-16T13:31:18.128Z,99.90
2019-01-16T13:34:48.060Z,99.90
2019-01-16T13:38:28.319Z,99.90
2019-01-16T13:41:16.572Z,99.90
2019-01-16T13:44:21.590Z,99.90
2019-01-16T13:47:08.821Z,99.90
2019-01-16T13:50:07.805Z,99.90
2019-01-16T13:53:09.664Z,99.90
2019-01-16T13:56:17.254Z,99.90
2019-01-16T13:59:11.121Z,99.90
2019-01-16T14:02:11.604Z,99.90
2019-01-16T14:05:31.481Z,99.90
2019-01-16T14:08:35.388Z,99.90
2019-01-16T14:11:26.934Z,99.90
2019-01-16T14:14:24.381Z,99.90
2019-01-16T14:17:16.178Z,99.90
2019-01-16T14:20:25.191Z,99.90
2019-01-16T14:23:14.969Z,99.90
2019-01-16T14:26:10.823Z,99.90
2019-01-16T14:29:26.605Z,99.90
2019-01-16T14:32:16.746Z,99.90
2019-01-16T14:35:24.237Z,99.90
2019-01-16T14:38:34.477Z,99.90
2019-01-16T14:41:54.006Z,99.90
2019-01-16T14:44:48.166Z,99.90
2019-01-16T14:47:42.723Z,99.90
2019-01-16T14:50:37.175Z,99.90
2019-01-16T14:53:40.508Z,99.90
2019-01-16T14:56:35.602Z,99.90
2019-01-16T14:59:25.858Z,99.90
2019-01-16T15:02:30.301Z,99.90
2019-01-16T15:05:30.872Z,99.90
2019-01-16T15:08:22.510Z,99.90
2019-01-16T15:11:12.895Z,99.90
2019-01-16T15:14:02.015Z,99.90
2019-01-16T15:16:55.007Z,99.90
2019-01-16T15:19:49.164Z,99.90
2019-01-16T15:22:41.111Z,99.90
2019-01-16T15:25:36.243Z,99.90
2019-01-16T15:28:27.204Z,99.90
2019-01-16T15:31:16.983Z,99.90
2019-01-16T15:34:12.995Z,99.90
2019-01-16T15:37:06.886Z,99.90
2019-01-16T15:40:02.258Z,99.90
2019-01-16T15:42:47.079Z,99.90
2019-01-16T15:45:30.109Z,99.90
2019-01-16T15:48:21.984Z,99.90
2019-01-16T15:51:12.202Z,99.90
2019-01-16T15:54:06.873Z,99.90
2019-01-16T15:57:08.096Z,99.90
2019-01-16T16:00:45.908Z,99.90
2019-01-16T16:03:39.720Z,99.90
2019-01-16T16:06:29.726Z,99.90
2019-01-16T16:09:21.190Z,99.90
2019-01-16T16:12:21.733Z,99.90
2019-01-16T16:15:19.822Z,99.90
2019-01-16T16:18:11.222Z,99.90
2019-01-16T16:21:02.505Z,99.90
2019-01-16T16:23:48.706Z,99.90
2019-01-16T16:26:38.435Z,99.90
2019-01-16T16:29:35.386Z,99.90
2019-01-16T16:32:26.825Z,99.90
2019-01-16T16:35:16.518Z,99.90
2019-01-16T16:38:07.833Z,99.90
2019-01-16T16:40:48.837Z,99.90
2019-01-16T16:43:40.149Z,99.90
2019-01-16T16:46:29.763Z,99.90
2019-01-16T16:49:21.114Z,99.90
2019-01-16T16:52:25.928Z,99.90
2019-01-16T16:55:13.806Z,99.90
2019-01-16T16:58:03.669Z,99.90
2019-01-16T17:00:49.562Z,99.90
2019-01-16T17:03:42.143Z,99.90
2019-01-16T17:06:32.807Z,99.90
2019-01-16T17:09:43.024Z,99.90
2019-01-16T17:12:43.390Z,99.90
2019-01-16T17:15:33.386Z,99.90
2019-01-16T17:18:31.539Z,99.90
2019-01-16T17:21:21.088Z,99.90
2019-01-16T17:24:10.308Z,99.90
2019-01-16T17:27:07.724Z,99.80
2019-01-16T17:29:57.465Z,99.90
2019-01-16T17:32:38.955Z,99.90
2019-01-16T17:35:32.161Z,99.90
2019-01-16T17:38:21.922Z,99.90
2019-01-16T17:41:13.238Z,99.20
2019-01-16T17:44:04.052Z,99.90
2019-01-16T17:50:22.111Z,99.50
2019-01-16T17:53:13.401Z,98.50
2019-01-16T17:56:13.535Z,99.90
2019-01-16T17:59:03.465Z,99.90
2019-01-16T18:01:49.740Z,99.90
2019-01-16T18:04:41.021Z,99.90
2019-01-16T18:07:33.174Z,99.90
2019-01-16T18:10:24.731Z,99.90
2019-01-16T18:13:14.690Z,99.90
2019-01-16T18:16:22.586Z,99.90
2019-01-16T18:19:19.905Z,99.90
2019-01-16T18:22:11.681Z,99.90
2019-01-16T18:25:06.021Z,98.80
2019-01-16T18:28:12.324Z,97.70
2019-01-16T18:31:03.652Z,99.90
2019-01-16T18:33:46.927Z,99.90
2019-01-16T18:36:38.698Z,99.90
2019-01-16T18:39:29.387Z,99.90
2019-01-16T18:42:26.828Z,99.50
2019-01-16T18:45:16.959Z,99.90
2019-01-16T18:48:06.326Z,99.90
2019-01-16T18:50:56.392Z,99.30
2019-01-16T18:53:46.561Z,99.20
2019-01-16T18:56:49.878Z,99.90
2019-01-16T18:59:46.691Z,99.90
2019-01-16T19:02:39.432Z,99.90
2019-01-16T19:05:29.204Z,99.90
2019-01-16T19:08:19.480Z,99.90
2019-01-16T19:11:03.158Z,99.90
2019-01-16T19:13:55.201Z,99.90
2019-01-16T19:16:54.065Z,99.90
2019-01-16T19:19:44.977Z,99.20
2019-01-16T19:22:57.903Z,98.90
2019-01-16T19:25:47.821Z,99.90
2019-01-16T19:28:41.961Z,99.90
2019-01-16T19:31:40.485Z,99.90
2019-01-16T19:34:34.782Z,99.90
2019-01-16T19:37:42.088Z,99.90
2019-01-16T19:40:27.282Z,99.90
2019-01-16T19:43:21.209Z,99.90
2019-01-16T19:46:00.241Z,99.90
2019-01-16T19:48:54.605Z,99.90
2019-01-16T19:51:44.764Z,99.90
2019-01-16T19:54:32.333Z,99.90
2019-01-16T19:57:14.997Z,99.90
2019-01-16T20:00:04.347Z,99.90
2019-01-16T20:02:53.806Z,99.90
2019-01-16T20:05:44.068Z,99.90
2019-01-16T20:11:31.281Z,99.90
2019-01-16T20:14:38.326Z,99.90
2019-01-16T20:17:33.829Z,99.90
2019-01-16T20:20:21.262Z,99.80
2019-01-16T20:23:21.497Z,99.90
2019-01-16T20:26:12.393Z,99.90
2019-01-16T20:29:06.087Z,99.90
2019-01-16T20:32:03.694Z,99.90
2019-01-16T20:34:51.592Z,99.90
2019-01-16T20:37:45.859Z,99.90
2019-01-16T20:40:37.264Z,99.90
2019-01-16T20:43:36.259Z,99.90
2019-01-16T20:46:30.496Z,99.90
2019-01-16T20:49:21.903Z,99.90
2019-01-16T20:52:10.621Z,99.90
2019-01-16T20:55:03.181Z,99.90
2019-01-16T20:57:54.595Z,99.90
2019-01-16T21:00:58.773Z,99.90
2019-01-16T21:03:51.066Z,99.90
2019-01-16T21:06:42.360Z,99.90
2019-01-16T21:09:33.978Z,99.90
2019-01-16T21:12:36.491Z,99.90
2019-01-16T21:15:35.199Z,99.60
2019-01-16T21:18:20.634Z,98.80
2019-01-16T21:21:17.909Z,97.60
2019-01-16T21:24:24.892Z,96.10
2019-01-16T21:27:22.532Z,97.20
2019-01-16T21:30:16.581Z,97.20
2019-01-16T21:33:16.170Z,97.20
2019-01-16T21:36:10.185Z,97.40
2019-01-16T21:39:01.996Z,96.80
2019-01-16T21:42:16.948Z,96.80
2019-01-16T21:45:13.986Z,96.40
2019-01-16T21:48:04.922Z,96.20
2019-01-16T21:51:05.222Z,95.30
2019-01-16T21:53:57.038Z,97.00
2019-01-16T21:57:07.039Z,98.40
2019-01-16T22:00:10.026Z,99.70
2019-01-16T22:03:10.115Z,99.90
2019-01-16T22:06:02.925Z,99.70
2019-01-16T22:09:06.157Z,99.60
2019-01-16T22:11:58.268Z,99.50
2019-01-16T22:14:55.229Z,99.90
2019-01-16T22:18:03.485Z,99.90
2019-01-16T22:20:48.019Z,99.90
2019-01-16T22:23:39.420Z,99.90
2019-01-16T22:26:41.928Z,99.90
2019-01-16T22:29:42.626Z,99.90
2019-01-16T22:32:40.913Z,99.90
2019-01-16T22:35:47.671Z,99.90
2019-01-16T22:38:29.930Z,99.90
2019-01-16T22:41:19.871Z,99.90
2019-01-16T22:44:16.930Z,99.90
2019-01-16T22:47:07.115Z,99.90
2019-01-16T22:50:10.145Z,99.90
2019-01-16T22:52:59.834Z,99.90
2019-01-16T22:55:53.861Z,99.90
2019-01-16T22:58:47.576Z,99.90
2019-01-16T23:01:38.277Z,99.90
2019-01-16T23:04:43.899Z,99.90
2019-01-16T23:07:35.223Z,99.90
2019-01-16T23:10:35.991Z,99.90
2019-01-16T23:13:33.530Z,99.90
2019-01-16T23:16:24.911Z,99.90
2019-01-16T23:19:16.179Z,99.90
2019-01-16T23:22:06.649Z,99.90
2019-01-16T23:25:03.881Z,99.90
2019-01-16T23:27:53.486Z,99.90
2019-01-16T23:30:35.961Z,99.90
2019-01-16T23:33:30.273Z,99.90
2019-01-16T23:36:30.325Z,99.90
2019-01-16T23:39:30.311Z,99.90
2019-01-16T23:42:27.255Z,99.90
2019-01-16T23:45:13.881Z,99.90
2019-01-16T23:48:05.145Z,99.90
2019-01-16T23:51:08.599Z,99.90
2019-01-16T23:54:09.139Z,99.90
2019-01-16T23:56:58.618Z,99.90
2019-01-16T23:59:48.219Z,99.90
